Weather History for Yankton, SD

Change the Weather History Date:

Tuesday, January 15, 2013

  Actual Average Record
Temperature  
Mean Temperature 22 °F -  
Max Temperature 33 °F 29 °F 60 °F (2006)
Min Temperature 12 °F 6 °F -22 °F (1972)
Degree Days  
Heating Degree Days 42    
Moisture  
Dew Point 9 °F    
Average Humidity 59    
Maximum Humidity 93    
Minimum Humidity 32    
Precipitation  
Precipitation 0.01 in - - ()
Sea Level Pressure  
Sea Level Pressure 30.11 in    
Wind  
Wind Speed 8 mph (SSW)    
Max Wind Speed 16 mph    
Max Gust Speed 22 mph    
Visibility 10 miles    
Events      
Averages and records for this station are not official NWS values.
T = Trace of Precipitation, MM = Missing Value Source: NWS Daily Summary

Daily Weather History Graph

Daily Weather History Graph

Search for Another Location

Airport:

Trip Planner

Search our weather history database for the weather conditions in past years. The results will help you decide how hot, cold, wet, or windy it might be!

Date:

Astronomy

Jan. 15, 2013 Rise Set
Actual Time 7:57 AM CST 5:20 PM CST
Civil Twilight 7:26 AM CST 5:52 PM CST
Nautical Twilight 6:51 AM CST 6:27 PM CST
Astronomical Twilight 6:17 AM CST 7:01 PM CST
Moon 9:56 AM CST (1/15) 10:20 PM CST (1/15)
Length of Visible Light 10h 26m
Length of Day
9h 23m
Waxing Crescent, 19% of the Moon is Illuminated
Jan 15
Waxing Crescent
Jan 18
First Quarter
Jan 26
Full
Feb 3
Last Quarter
Feb 10
New

Hourly Weather History & Observations

Time (CST) Temp. Windchill Dew Point Humidity Pressure Visibility Wind Dir Wind Speed Gust Speed Precip Events Conditions
12:15 AM 17.6 °F 9.3 °F 6.8 °F 63% 30.25 in 10.0 mi SW 5.8 mph - N/A   Clear
12:35 AM 15.8 °F 6.1 °F 8.6 °F 73% 30.25 in 10.0 mi SW 6.9 mph - N/A   Clear
12:55 AM 15.8 °F 7.2 °F 6.8 °F 68% 30.25 in 10.0 mi SW 5.8 mph - N/A   Clear
1:15 AM 15.8 °F 8.6 °F 6.8 °F 68% 30.25 in 10.0 mi SW 4.6 mph - N/A   Clear
1:35 AM 15.8 °F 6.1 °F 8.6 °F 73% 30.25 in 10.0 mi SW 6.9 mph - N/A   Clear
1:55 AM 15.8 °F 6.1 °F 8.6 °F 73% 30.25 in 10.0 mi SSW 6.9 mph - N/A   Clear
2:15 AM 15.8 °F 7.2 °F 8.6 °F 73% 30.24 in 10.0 mi SSW 5.8 mph - N/A   Clear
2:35 AM 15.8 °F 5.1 °F 10.4 °F 79% 30.24 in 10.0 mi SSW 8.1 mph - N/A   Clear
2:55 AM 15.8 °F 4.2 °F 8.6 °F 73% 30.24 in 10.0 mi SSW 9.2 mph - N/A   Clear
3:15 AM 15.8 °F 5.1 °F 8.6 °F 73% 30.23 in 10.0 mi SSW 8.1 mph - N/A   Clear
3:35 AM 14.0 °F 2.0 °F 8.6 °F 79% 30.23 in 10.0 mi SSW 9.2 mph - N/A   Clear
3:55 AM 14.0 °F 2.9 °F 10.4 °F 86% 30.22 in 10.0 mi SSW 8.1 mph - N/A   Clear
4:15 AM 15.8 °F 10.2 °F 8.6 °F 73% 30.22 in 10.0 mi WSW 3.5 mph - N/A   Clear
4:55 AM 15.8 °F 5.1 °F 10.4 °F 79% 30.21 in 10.0 mi SSW 8.1 mph - N/A   Clear
5:15 AM 15.8 °F 4.2 °F 10.4 °F 79% 30.20 in 10.0 mi SSW 9.2 mph - N/A   Clear
5:35 AM 15.8 °F 5.1 °F 10.4 °F 79% 30.20 in 10.0 mi SSW 8.1 mph - N/A   Clear
5:55 AM 15.8 °F 6.1 °F 8.6 °F 73% 30.20 in 10.0 mi SW 6.9 mph - N/A   Clear
6:15 AM 15.8 °F 6.1 °F 10.4 °F 79% 30.20 in 10.0 mi SSW 6.9 mph - N/A   Clear
6:35 AM 14.0 °F 6.5 °F 8.6 °F 79% 30.19 in 10.0 mi SSW 4.6 mph - N/A   Clear
6:55 AM 14.0 °F 8.2 °F 10.4 °F 86% 30.19 in 10.0 mi SSW 3.5 mph - N/A   Clear
7:15 AM 14.0 °F 5.1 °F 12.2 °F 93% 30.18 in 10.0 mi SSE 5.8 mph - N/A   Clear
7:35 AM 12.2 °F 4.3 °F 10.4 °F 92% 30.18 in 10.0 mi South 4.6 mph - N/A   Clear
7:55 AM 15.8 °F 7.2 °F 12.2 °F 86% 30.18 in 10.0 mi SSW 5.8 mph - N/A   Clear
8:15 AM 15.8 °F 6.1 °F 10.4 °F 79% 30.18 in 10.0 mi SSW 6.9 mph - N/A   Clear
8:35 AM 17.6 °F 7.3 °F 10.4 °F 73% 30.18 in 10.0 mi SSW 8.1 mph - N/A   Clear
8:55 AM 17.6 °F 7.3 °F 12.2 °F 79% 30.19 in 10.0 mi SSW 8.1 mph - N/A   Clear
9:15 AM 19.4 °F 11.5 °F 12.2 °F 74% 30.19 in 10.0 mi SSW 5.8 mph - N/A   Clear
9:35 AM 19.4 °F 9.5 °F 12.2 °F 74% 30.18 in 10.0 mi SSW 8.1 mph - N/A   Clear
9:55 AM 19.4 °F 9.5 °F 12.2 °F 74% 30.17 in 10.0 mi South 8.1 mph - N/A   Clear
10:15 AM 21.2 °F 12.6 °F 14.0 °F 74% 30.16 in 10.0 mi SSW 6.9 mph - N/A   Clear
10:35 AM 23.0 °F 13.9 °F 14.0 °F 68% 30.16 in 10.0 mi SSW 8.1 mph - N/A   Clear
10:55 AM 24.8 °F 13.4 °F 15.8 °F 69% 30.16 in 10.0 mi SSW 12.7 mph - N/A   Clear
11:15 AM 24.8 °F 13.4 °F 12.2 °F 59% 30.14 in 10.0 mi South 12.7 mph - N/A   Clear
11:35 AM 26.6 °F 14.3 °F 12.2 °F 55% 30.13 in 10.0 mi SSW 16.1 mph 21.9 mph 0.01 in   Clear
11:55 AM 26.6 °F 14.7 °F 10.4 °F 51% 30.13 in 10.0 mi SW 15.0 mph - 0.01 in   Clear
12:15 PM 26.6 °F 14.7 °F 10.4 °F 51% 30.12 in 10.0 mi SW 15.0 mph 18.4 mph N/A   Clear
12:35 PM 28.4 °F 17.5 °F 8.6 °F 43% 30.10 in 10.0 mi SW 13.8 mph - N/A   Clear
12:55 PM 28.4 °F 18.0 °F 10.4 °F 47% 30.09 in 10.0 mi SW 12.7 mph - N/A   Clear
1:35 PM 30.2 °F 19.8 °F 8.6 °F 40% 30.07 in 10.0 mi SW 13.8 mph - N/A   Clear
1:55 PM 30.2 °F 20.2 °F 6.8 °F 37% 30.07 in 10.0 mi SW 12.7 mph - N/A   Clear
2:15 PM 30.2 °F 21.3 °F 8.6 °F 40% 30.06 in 10.0 mi SSW 10.4 mph - N/A   Clear
2:35 PM 32.0 °F 22.5 °F 6.8 °F 35% 30.05 in 10.0 mi SSW 12.7 mph - N/A   Clear
2:55 PM 32.0 °F 22.5 °F 6.8 °F 35% 30.05 in 10.0 mi SSW 12.7 mph - N/A   Clear
3:15 PM 33.8 °F 24.8 °F 6.8 °F 32% 30.05 in 10.0 mi SW 12.7 mph - N/A   Clear
3:35 PM 33.8 °F 24.3 °F 6.8 °F 32% 30.05 in 10.0 mi SSW 13.8 mph - N/A   Clear
3:55 PM 33.8 °F 24.8 °F 6.8 °F 32% 30.04 in 10.0 mi SSW 12.7 mph - N/A   Clear
4:15 PM 33.8 °F 25.3 °F 6.8 °F 32% 30.04 in 10.0 mi SSW 11.5 mph - N/A   Clear
4:35 PM 33.8 °F 25.8 °F 6.8 °F 32% 30.04 in 10.0 mi SSW 10.4 mph - N/A   Clear
4:55 PM 32.0 °F 26.4 °F 5.0 °F 32% 30.04 in 10.0 mi SSW 5.8 mph - N/A   Clear
5:15 PM 32.0 °F 26.4 °F 6.8 °F 35% 30.04 in 10.0 mi South 5.8 mph - N/A   Clear
5:35 PM 30.2 °F 23.4 °F 6.8 °F 37% 30.03 in 10.0 mi South 6.9 mph - N/A   Clear
5:55 PM 30.2 °F 24.3 °F 6.8 °F 37% 30.03 in 10.0 mi South 5.8 mph - N/A   Clear
6:15 PM 28.4 °F 21.2 °F 6.8 °F 40% 30.02 in 10.0 mi SW 6.9 mph - N/A   Clear
6:35 PM 28.4 °F 22.2 °F 6.8 °F 40% 30.02 in 10.0 mi SSW 5.8 mph - N/A   Clear
6:55 PM 26.6 °F 20.0 °F 6.8 °F 43% 30.01 in 10.0 mi South 5.8 mph - N/A   Clear
7:15 PM 26.6 °F 20.0 °F 8.6 °F 47% 30.01 in 10.0 mi SSW 5.8 mph - N/A   Clear
7:35 PM 26.6 °F 20.0 °F 8.6 °F 47% 30.00 in 10.0 mi SSW 5.8 mph - N/A   Clear
7:55 PM 24.8 °F 17.9 °F 8.6 °F 50% 29.99 in 10.0 mi SW 5.8 mph - N/A   Clear
8:15 PM 24.8 °F 17.9 °F 8.6 °F 50% 29.98 in 10.0 mi SW 5.8 mph - N/A   Clear
8:35 PM 24.8 °F 16.9 °F 10.4 °F 54% 29.97 in 10.0 mi SSW 6.9 mph - N/A   Clear
8:55 PM 24.8 °F 16.9 °F 8.6 °F 50% 29.96 in 10.0 mi SSW 6.9 mph - N/A   Clear
9:15 PM 23.0 °F 13.1 °F 8.6 °F 54% 29.95 in 10.0 mi South 9.2 mph - N/A   Clear
9:35 PM 23.0 °F 13.9 °F 8.6 °F 54% 29.94 in 10.0 mi SSW 8.1 mph - N/A   Clear
9:55 PM 23.0 °F 12.4 °F 10.4 °F 59% 29.93 in 10.0 mi SSW 10.4 mph - N/A   Clear
10:15 PM 24.8 °F 14.6 °F 10.4 °F 54% 29.93 in 10.0 mi SSW 10.4 mph - N/A   Clear
10:35 PM 24.8 °F 14.0 °F 10.4 °F 54% 29.91 in 10.0 mi SSW 11.5 mph - N/A   Clear
10:55 PM 24.8 °F 13.4 °F 10.4 °F 54% 29.90 in 10.0 mi SSW 12.7 mph - N/A   Clear
11:15 PM 24.8 °F 14.6 °F 10.4 °F 54% 29.89 in 10.0 mi SSW 10.4 mph - N/A   Mostly Cloudy
11:35 PM 24.8 °F 14.6 °F 14.0 °F 64% 29.89 in 10.0 mi SSW 10.4 mph - N/A   Overcast